sensor_id;sensor_type;location;lat;lon;timestamp;pressure;altitude;pressure_sealevel;temperature;humidity
3096;BME280;1558;42.700;23.360;2023-07-02T00:00:19;94656.56;;;20.73;100.00
3096;BME280;1558;42.700;23.360;2023-07-02T00:02:47;94652.81;;;20.60;100.00
3096;BME280;1558;42.700;23.360;2023-07-02T00:05:15;94502.00;;;19.77;100.00
3096;BME280;1558;42.700;23.360;2023-07-02T00:07:45;94655.81;;;20.69;100.00
3096;BME280;1558;42.700;23.360;2023-07-02T00:10:13;94670.44;;;20.59;100.00
3096;BME280;1558;42.700;23.360;2023-07-02T00:12:41;94656.34;;;20.61;100.00
3096;BME280;1558;42.700;23.360;2023-07-02T00:15:11;94646.69;;;20.49;100.00
3096;BME280;1558;42.700;23.360;2023-07-02T00:17:39;94650.44;;;20.62;100.00
3096;BME280;1558;42.700;23.360;2023-07-02T00:20:08;94649.72;;;20.58;100.00
3096;BME280;1558;42.700;23.360;2023-07-02T00:22:41;94639.06;;;20.64;100.00
3096;BME280;1558;42.700;23.360;2023-07-02T00:25:14;94623.53;;;20.54;100.00
3096;BME280;1558;42.700;23.360;2023-07-02T00:27:42;94643.34;;;20.65;100.00
3096;BME280;1558;42.700;23.360;2023-07-02T00:30:11;94614.81;;;20.32;100.00
3096;BME280;1558;42.700;23.360;2023-07-02T00:32:39;94637.63;;;20.82;100.00
3096;BME280;1558;42.700;23.360;2023-07-02T00:35:07;94657.66;;;20.79;100.00
3096;BME280;1558;42.700;23.360;2023-07-02T00:37:35;94624.13;;;20.68;100.00
3096;BME280;1558;42.700;23.360;2023-07-02T00:40:04;94654.63;;;21.01;100.00
3096;BME280;1558;42.700;23.360;2023-07-02T00:42:34;94664.22;;;20.85;100.00
3096;BME280;1558;42.700;23.360;2023-07-02T00:45:04;94670.50;;;20.86;100.00
3096;BME280;1558;42.700;23.360;2023-07-02T00:47:34;94660.06;;;20.74;100.00
3096;BME280;1558;42.700;23.360;2023-07-02T00:50:03;94671.63;;;20.88;100.00
3096;BME280;1558;42.700;23.360;2023-07-02T00:52:32;94671.84;;;21.01;100.00
3096;BME280;1558;42.700;23.360;2023-07-02T00:55:00;94671.88;;;21.28;100.00
3096;BME280;1558;42.700;23.360;2023-07-02T00:57:28;94683.31;;;21.23;100.00
3096;BME280;1558;42.700;23.360;2023-07-02T00:59:58;94669.97;;;21.25;100.00
3096;BME280;1558;42.700;23.360;2023-07-02T01:02:28;94666.78;;;21.30;100.00
3096;BME280;1558;42.700;23.360;2023-07-02T01:04:56;94661.09;;;21.40;100.00
3096;BME280;1558;42.700;23.360;2023-07-02T01:07:28;94669.56;;;21.26;100.00
3096;BME280;1558;42.700;23.360;2023-07-02T01:09:56;94665.06;;;21.13;100.00
3096;BME280;1558;42.700;23.360;2023-07-02T01:12:25;94657.22;;;21.38;100.00
3096;BME280;1558;42.700;23.360;2023-07-02T01:14:56;94660.31;;;21.40;100.00
3096;BME280;1558;42.700;23.360;2023-07-02T01:17:29;94625.69;;;20.96;100.00
3096;BME280;1558;42.700;23.360;2023-07-02T01:20:13;94654.44;;;21.15;100.00
3096;BME280;1558;42.700;23.360;2023-07-02T01:22:43;94672.09;;;21.14;100.00
3096;BME280;1558;42.700;23.360;2023-07-02T01:25:11;94655.53;;;20.90;100.00
3096;BME280;1558;42.700;23.360;2023-07-02T01:27:39;94666.44;;;20.67;100.00
3096;BME280;1558;42.700;23.360;2023-07-02T01:30:08;94665.19;;;20.42;100.00
3096;BME280;1558;42.700;23.360;2023-07-02T01:32:37;94673.50;;;20.35;100.00
3096;BME280;1558;42.700;23.360;2023-07-02T01:35:07;94652.72;;;20.37;100.00
3096;BME280;1558;42.700;23.360;2023-07-02T01:37:37;94642.69;;;20.23;100.00
3096;BME280;1558;42.700;23.360;2023-07-02T01:40:06;94624.00;;;20.11;100.00
3096;BME280;1558;42.700;23.360;2023-07-02T01:42:34;94637.25;;;20.16;100.00
3096;BME280;1558;42.700;23.360;2023-07-02T01:45:03;94644.03;;;20.05;100.00
3096;BME280;1558;42.700;23.360;2023-07-02T01:47:32;94649.50;;;20.05;100.00
3096;BME280;1558;42.700;23.360;2023-07-02T01:50:01;94655.06;;;19.98;100.00
3096;BME280;1558;42.700;23.360;2023-07-02T01:52:30;94658.09;;;20.07;100.00
3096;BME280;1558;42.700;23.360;2023-07-02T01:55:02;94642.44;;;20.11;100.00
3096;BME280;1558;42.700;23.360;2023-07-02T01:57:30;94640.72;;;20.24;100.00
3096;BME280;1558;42.700;23.360;2023-07-02T01:59:58;94631.66;;;20.31;100.00
3096;BME280;1558;42.700;23.360;2023-07-02T02:02:26;94635.78;;;20.46;100.00
3096;BME280;1558;42.700;23.360;2023-07-02T02:04:54;94611.69;;;20.30;100.00
3096;BME280;1558;42.700;23.360;2023-07-02T02:07:23;94616.91;;;20.17;100.00
3096;BME280;1558;42.700;23.360;2023-07-02T02:09:52;94614.78;;;19.98;100.00
3096;BME280;1558;42.700;23.360;2023-07-02T02:12:22;94579.31;;;19.50;100.00
3096;BME280;1558;42.700;23.360;2023-07-02T02:14:50;94624.03;;;19.71;100.00
3096;BME280;1558;42.700;23.360;2023-07-02T02:17:18;94620.94;;;19.69;100.00
3096;BME280;1558;42.700;23.360;2023-07-02T02:19:46;94604.59;;;19.62;100.00
3096;BME280;1558;42.700;23.360;2023-07-02T02:22:14;94494.50;;;18.62;100.00
3096;BME280;1558;42.700;23.360;2023-07-02T02:24:42;94630.56;;;19.43;100.00
3096;BME280;1558;42.700;23.360;2023-07-02T02:27:10;94614.72;;;19.65;100.00
3096;BME280;1558;42.700;23.360;2023-07-02T02:29:40;94618.34;;;19.54;100.00
3096;BME280;1558;42.700;23.360;2023-07-02T02:32:08;94605.44;;;19.58;100.00
3096;BME280;1558;42.700;23.360;2023-07-02T02:34:36;94615.28;;;19.49;100.00
3096;BME280;1558;42.700;23.360;2023-07-02T02:37:04;94610.69;;;19.39;100.00
3096;BME280;1558;42.700;23.360;2023-07-02T02:39:32;94610.25;;;19.40;100.00
3096;BME280;1558;42.700;23.360;2023-07-02T02:42:01;94609.88;;;19.38;100.00
3096;BME280;1558;42.700;23.360;2023-07-02T02:44:29;94616.94;;;19.39;100.00
3096;BME280;1558;42.700;23.360;2023-07-02T02:47:00;94611.50;;;19.32;100.00
3096;BME280;1558;42.700;23.360;2023-07-02T02:49:29;94601.78;;;19.24;100.00
3096;BME280;1558;42.700;23.360;2023-07-02T02:51:57;94592.50;;;19.11;100.00
3096;BME280;1558;42.700;23.360;2023-07-02T02:54:26;94617.38;;;19.27;100.00
3096;BME280;1558;42.700;23.360;2023-07-02T02:56:54;94497.13;;;18.76;100.00
3096;BME280;1558;42.700;23.360;2023-07-02T02:59:22;94612.16;;;19.47;100.00
3096;BME280;1558;42.700;23.360;2023-07-02T03:01:50;94622.22;;;19.61;100.00
3096;BME280;1558;42.700;23.360;2023-07-02T03:04:19;94591.53;;;19.39;100.00
3096;BME280;1558;42.700;23.360;2023-07-02T03:06:52;94612.88;;;19.54;100.00
3096;BME280;1558;42.700;23.360;2023-07-02T03:09:20;94622.13;;;19.68;100.00
3096;BME280;1558;42.700;23.360;2023-07-02T03:11:48;94629.50;;;19.74;100.00
3096;BME280;1558;42.700;23.360;2023-07-02T03:14:17;94594.78;;;19.68;100.00
3096;BME280;1558;42.700;23.360;2023-07-02T03:16:45;94616.84;;;19.87;100.00
3096;BME280;1558;42.700;23.360;2023-07-02T03:19:13;94607.78;;;19.94;100.00
3096;BME280;1558;42.700;23.360;2023-07-02T03:21:44;94593.25;;;19.97;100.00
3096;BME280;1558;42.700;23.360;2023-07-02T03:24:12;94604.09;;;20.11;100.00
3096;BME280;1558;42.700;23.360;2023-07-02T03:26:40;94618.88;;;20.17;100.00
3096;BME280;1558;42.700;23.360;2023-07-02T03:29:09;94592.38;;;20.07;100.00
3096;BME280;1558;42.700;23.360;2023-07-02T03:31:37;94639.47;;;20.32;100.00
3096;BME280;1558;42.700;23.360;2023-07-02T03:34:07;94578.84;;;19.93;100.00
3096;BME280;1558;42.700;23.360;2023-07-02T03:36:36;94637.41;;;20.40;100.00
3096;BME280;1558;42.700;23.360;2023-07-02T03:39:06;94636.09;;;20.14;100.00
3096;BME280;1558;42.700;23.360;2023-07-02T03:41:37;94634.66;;;20.06;100.00
3096;BME280;1558;42.700;23.360;2023-07-02T03:44:05;94644.63;;;20.23;100.00
3096;BME280;1558;42.700;23.360;2023-07-02T03:46:34;94642.38;;;20.14;100.00
3096;BME280;1558;42.700;23.360;2023-07-02T03:49:02;94644.41;;;20.07;100.00
3096;BME280;1558;42.700;23.360;2023-07-02T03:51:31;94628.34;;;20.09;100.00
3096;BME280;1558;42.700;23.360;2023-07-02T03:53:59;94618.31;;;19.99;100.00
3096;BME280;1558;42.700;23.360;2023-07-02T03:56:29;94604.44;;;19.79;100.00
3096;BME280;1558;42.700;23.360;2023-07-02T03:58:57;94626.69;;;19.81;100.00
3096;BME280;1558;42.700;23.360;2023-07-02T04:01:25;94637.97;;;19.87;100.00
3096;BME280;1558;42.700;23.360;2023-07-02T04:03:53;94629.25;;;19.99;100.00
3096;BME280;1558;42.700;23.360;2023-07-02T04:06:21;94642.69;;;19.83;100.00
3096;BME280;1558;42.700;23.360;2023-07-02T04:08:50;94635.31;;;19.80;100.00
3096;BME280;1558;42.700;23.360;2023-07-02T04:11:18;94633.25;;;19.91;100.00
3096;BME280;1558;42.700;23.360;2023-07-02T04:13:47;94635.69;;;19.82;100.00
3096;BME280;1558;42.700;23.360;2023-07-02T04:16:15;94653.13;;;19.95;100.00
3096;BME280;1558;42.700;23.360;2023-07-02T04:18:44;94649.75;;;19.84;100.00
3096;BME280;1558;42.700;23.360;2023-07-02T04:21:12;94662.31;;;19.78;100.00
3096;BME280;1558;42.700;23.360;2023-07-02T04:23:40;94652.81;;;19.89;100.00
3096;BME280;1558;42.700;23.360;2023-07-02T04:26:08;94671.78;;;20.07;100.00
3096;BME280;1558;42.700;23.360;2023-07-02T04:28:58;94668.16;;;20.17;100.00
3096;BME280;1558;42.700;23.360;2023-07-02T04:31:26;94670.41;;;20.29;100.00
3096;BME280;1558;42.700;23.360;2023-07-02T04:33:54;94673.28;;;20.15;100.00
3096;BME280;1558;42.700;23.360;2023-07-02T04:36:22;94677.56;;;20.16;100.00
3096;BME280;1558;42.700;23.360;2023-07-02T04:38:51;94671.41;;;20.08;100.00
3096;BME280;1558;42.700;23.360;2023-07-02T04:41:19;94668.75;;;19.98;100.00
3096;BME280;1558;42.700;23.360;2023-07-02T04:43:48;94680.63;;;20.21;100.00
3096;BME280;1558;42.700;23.360;2023-07-02T04:46:17;94697.88;;;20.18;100.00
3096;BME280;1558;42.700;23.360;2023-07-02T04:48:46;94698.00;;;20.45;100.00
3096;BME280;1558;42.700;23.360;2023-07-02T04:51:14;94688.94;;;20.52;100.00
3096;BME280;1558;42.700;23.360;2023-07-02T04:53:42;94698.47;;;20.40;100.00
3096;BME280;1558;42.700;23.360;2023-07-02T04:56:10;94702.41;;;20.39;100.00
3096;BME280;1558;42.700;23.360;2023-07-02T04:58:38;94704.69;;;20.44;100.00
3096;BME280;1558;42.700;23.360;2023-07-02T05:01:06;94704.31;;;20.42;100.00
3096;BME280;1558;42.700;23.360;2023-07-02T05:03:37;94707.47;;;20.41;100.00
3096;BME280;1558;42.700;23.360;2023-07-02T05:06:05;94695.50;;;20.24;100.00
3096;BME280;1558;42.700;23.360;2023-07-02T05:08:33;94702.34;;;20.43;100.00
3096;BME280;1558;42.700;23.360;2023-07-02T05:11:03;94707.00;;;20.46;100.00
3096;BME280;1558;42.700;23.360;2023-07-02T05:13:31;94709.22;;;20.58;100.00
3096;BME280;1558;42.700;23.360;2023-07-02T05:15:59;94700.31;;;20.50;100.00
3096;BME280;1558;42.700;23.360;2023-07-02T05:18:27;94714.75;;;20.54;100.00
3096;BME280;1558;42.700;23.360;2023-07-02T05:20:57;94713.81;;;20.68;100.00
3096;BME280;1558;42.700;23.360;2023-07-02T05:23:25;94714.56;;;20.68;100.00
3096;BME280;1558;42.700;23.360;2023-07-02T05:25:53;94714.44;;;20.79;100.00
3096;BME280;1558;42.700;23.360;2023-07-02T05:28:21;94717.22;;;20.75;100.00
3096;BME280;1558;42.700;23.360;2023-07-02T05:30:49;94690.06;;;20.54;100.00
3096;BME280;1558;42.700;23.360;2023-07-02T05:33:19;94687.38;;;20.51;100.00
3096;BME280;1558;42.700;23.360;2023-07-02T05:35:48;94712.53;;;20.76;100.00
3096;BME280;1558;42.700;23.360;2023-07-02T05:38:18;94706.44;;;20.61;100.00
3096;BME280;1558;42.700;23.360;2023-07-02T05:40:47;94708.28;;;20.71;100.00
3096;BME280;1558;42.700;23.360;2023-07-02T05:43:16;94715.41;;;20.65;100.00
3096;BME280;1558;42.700;23.360;2023-07-02T05:45:44;94721.88;;;20.82;100.00
3096;BME280;1558;42.700;23.360;2023-07-02T05:48:12;94728.09;;;20.82;100.00
3096;BME280;1558;42.700;23.360;2023-07-02T05:50:40;94726.56;;;20.81;100.00
3096;BME280;1558;42.700;23.360;2023-07-02T05:53:08;94730.34;;;21.25;100.00
3096;BME280;1558;42.700;23.360;2023-07-02T05:55:38;94727.84;;;21.34;100.00
3096;BME280;1558;42.700;23.360;2023-07-02T05:58:08;94673.69;;;20.81;100.00
3096;BME280;1558;42.700;23.360;2023-07-02T06:00:36;94722.41;;;21.30;100.00
3096;BME280;1558;42.700;23.360;2023-07-02T06:03:05;94724.91;;;21.48;100.00
3096;BME280;1558;42.700;23.360;2023-07-02T06:05:34;94710.78;;;21.73;100.00
3096;BME280;1558;42.700;23.360;2023-07-02T06:08:03;94722.06;;;21.78;100.00
3096;BME280;1558;42.700;23.360;2023-07-02T06:10:31;94674.56;;;21.58;100.00
3096;BME280;1558;42.700;23.360;2023-07-02T06:13:02;94694.56;;;22.05;100.00
3096;BME280;1558;42.700;23.360;2023-07-02T06:15:30;94703.91;;;22.73;98.15
3096;BME280;1558;42.700;23.360;2023-07-02T06:17:58;94715.94;;;22.99;96.15
3096;BME280;1558;42.700;23.360;2023-07-02T06:20:27;94706.66;;;22.93;94.59
3096;BME280;1558;42.700;23.360;2023-07-02T06:22:55;94705.38;;;22.98;93.87
3096;BME280;1558;42.700;23.360;2023-07-02T06:25:23;94693.88;;;22.63;93.94
3096;BME280;1558;42.700;23.360;2023-07-02T06:27:51;94689.13;;;22.44;95.37
3096;BME280;1558;42.700;23.360;2023-07-02T06:30:23;94692.25;;;22.85;94.32
3096;BME280;1558;42.700;23.360;2023-07-02T06:32:51;94697.56;;;22.96;93.55
3096;BME280;1558;42.700;23.360;2023-07-02T06:35:19;94697.69;;;22.89;94.82
3096;BME280;1558;42.700;23.360;2023-07-02T06:37:48;94694.34;;;23.33;92.84
3096;BME280;1558;42.700;23.360;2023-07-02T06:40:16;94698.41;;;23.29;91.73
3096;BME280;1558;42.700;23.360;2023-07-02T06:42:45;94702.66;;;23.49;90.78
3096;BME280;1558;42.700;23.360;2023-07-02T06:45:15;94700.09;;;23.58;88.61
3096;BME280;1558;42.700;23.360;2023-07-02T06:47:44;94704.38;;;23.43;88.38
3096;BME280;1558;42.700;23.360;2023-07-02T06:50:12;94700.59;;;23.37;87.87
3096;BME280;1558;42.700;23.360;2023-07-02T06:52:40;94693.22;;;23.31;88.83
3096;BME280;1558;42.700;23.360;2023-07-02T06:55:09;94678.44;;;23.25;88.35
3096;BME280;1558;42.700;23.360;2023-07-02T06:57:42;94700.38;;;23.28;89.10
3096;BME280;1558;42.700;23.360;2023-07-02T07:00:13;94709.06;;;23.27;88.02
3096;BME280;1558;42.700;23.360;2023-07-02T07:02:43;94708.50;;;23.35;88.86
3096;BME280;1558;42.700;23.360;2023-07-02T07:05:16;94705.41;;;23.49;88.79
3096;BME280;1558;42.700;23.360;2023-07-02T07:07:45;94713.16;;;23.54;87.48
3096;BME280;1558;42.700;23.360;2023-07-02T07:10:13;94708.97;;;23.82;86.25
3096;BME280;1558;42.700;23.360;2023-07-02T07:12:41;94703.03;;;24.16;86.54
3096;BME280;1558;42.700;23.360;2023-07-02T07:15:09;94695.94;;;24.31;85.89
3096;BME280;1558;42.700;23.360;2023-07-02T07:17:38;94694.00;;;24.44;84.06
3096;BME280;1558;42.700;23.360;2023-07-02T07:20:08;94698.84;;;24.40;83.35
3096;BME280;1558;42.700;23.360;2023-07-02T07:22:36;94691.34;;;24.41;83.68
3096;BME280;1558;42.700;23.360;2023-07-02T07:25:05;94703.47;;;24.59;81.81
3096;BME280;1558;42.700;23.360;2023-07-02T07:27:33;94694.13;;;24.41;81.81
3096;BME280;1558;42.700;23.360;2023-07-02T07:30:01;94702.84;;;24.23;81.52
3096;BME280;1558;42.700;23.360;2023-07-02T07:32:29;94695.72;;;24.54;81.07
3096;BME280;1558;42.700;23.360;2023-07-02T07:34:57;94595.53;;;24.00;79.18
3096;BME280;1558;42.700;23.360;2023-07-02T07:37:27;94694.16;;;24.82;78.89
3096;BME280;1558;42.700;23.360;2023-07-02T07:39:55;94688.19;;;24.26;79.19
3096;BME280;1558;42.700;23.360;2023-07-02T07:42:23;94686.81;;;24.18;81.49
3096;BME280;1558;42.700;23.360;2023-07-02T07:44:51;94693.19;;;23.99;81.11
3096;BME280;1558;42.700;23.360;2023-07-02T07:47:19;94693.72;;;23.94;81.83
3096;BME280;1558;42.700;23.360;2023-07-02T07:49:47;94691.41;;;23.92;82.80
3096;BME280;1558;42.700;23.360;2023-07-02T07:52:15;94690.56;;;24.40;81.65
3096;BME280;1558;42.700;23.360;2023-07-02T07:54:45;94694.34;;;24.46;80.67
3096;BME280;1558;42.700;23.360;2023-07-02T07:57:13;94698.81;;;24.56;80.73
3096;BME280;1558;42.700;23.360;2023-07-02T07:59:41;94701.69;;;24.81;79.06
3096;BME280;1558;42.700;23.360;2023-07-02T08:02:09;94696.75;;;24.73;81.43
3096;BME280;1558;42.700;23.360;2023-07-02T08:04:37;94704.41;;;25.23;80.37
3096;BME280;1558;42.700;23.360;2023-07-02T08:07:06;94694.97;;;26.34;75.37
3096;BME280;1558;42.700;23.360;2023-07-02T08:09:35;94706.28;;;27.26;71.53
3096;BME280;1558;42.700;23.360;2023-07-02T08:12:06;94707.38;;;27.99;68.22
3096;BME280;1558;42.700;23.360;2023-07-02T08:14:34;94699.41;;;28.01;66.93
3096;BME280;1558;42.700;23.360;2023-07-02T08:17:03;94702.38;;;27.14;67.24
3096;BME280;1558;42.700;23.360;2023-07-02T08:19:31;94705.94;;;26.93;69.22
3096;BME280;1558;42.700;23.360;2023-07-02T08:21:59;94689.31;;;26.93;68.91
3096;BME280;1558;42.700;23.360;2023-07-02T08:24:29;94698.94;;;27.10;67.67
3096;BME280;1558;42.700;23.360;2023-07-02T08:26:58;94706.06;;;26.90;68.12
3096;BME280;1558;42.700;23.360;2023-07-02T08:29:27;94676.91;;;26.63;67.30
3096;BME280;1558;42.700;23.360;2023-07-02T08:31:56;94678.41;;;26.55;69.12
3096;BME280;1558;42.700;23.360;2023-07-02T08:34:24;94687.00;;;26.36;70.09
3096;BME280;1558;42.700;23.360;2023-07-02T08:36:52;94641.56;;;26.24;69.87
3096;BME280;1558;42.700;23.360;2023-07-02T08:39:20;94682.28;;;26.24;70.70
3096;BME280;1558;42.700;23.360;2023-07-02T08:41:49;94676.13;;;26.41;71.48
3096;BME280;1558;42.700;23.360;2023-07-02T08:44:20;94677.22;;;26.09;72.88
3096;BME280;1558;42.700;23.360;2023-07-02T08:46:49;94691.38;;;26.11;72.40
3096;BME280;1558;42.700;23.360;2023-07-02T08:49:20;94693.41;;;25.73;73.63
3096;BME280;1558;42.700;23.360;2023-07-02T08:51:48;94673.00;;;26.17;73.09
3096;BME280;1558;42.700;23.360;2023-07-02T08:54:17;94692.50;;;26.70;71.68
3096;BME280;1558;42.700;23.360;2023-07-02T08:56:46;94696.81;;;26.71;71.13
3096;BME280;1558;42.700;23.360;2023-07-02T08:59:14;94580.97;;;25.70;70.68
3096;BME280;1558;42.700;23.360;2023-07-02T09:01:46;94693.63;;;26.38;70.80
3096;BME280;1558;42.700;23.360;2023-07-02T09:04:17;94676.03;;;26.66;70.84
3096;BME280;1558;42.700;23.360;2023-07-02T09:06:46;94683.00;;;26.93;69.30
3096;BME280;1558;42.700;23.360;2023-07-02T09:09:15;94691.69;;;27.34;68.11
3096;BME280;1558;42.700;23.360;2023-07-02T09:11:49;94685.16;;;27.81;67.90
3096;BME280;1558;42.700;23.360;2023-07-02T09:14:25;94668.22;;;27.88;64.39
3096;BME280;1558;42.700;23.360;2023-07-02T09:17:04;94673.53;;;27.55;65.70
3096;BME280;1558;42.700;23.360;2023-07-02T09:19:36;94686.00;;;27.60;65.07
3096;BME280;1558;42.700;23.360;2023-07-02T09:22:15;94684.63;;;27.33;65.39
3096;BME280;1558;42.700;23.360;2023-07-02T09:24:51;94674.84;;;27.20;66.59
3096;BME280;1558;42.700;23.360;2023-07-02T09:27:20;94653.44;;;27.42;67.10
3096;BME280;1558;42.700;23.360;2023-07-02T09:29:52;94659.78;;;27.21;65.08
3096;BME280;1558;42.700;23.360;2023-07-02T09:32:29;94646.13;;;27.26;66.57
3096;BME280;1558;42.700;23.360;2023-07-02T09:35:00;94674.50;;;27.39;67.09
3096;BME280;1558;42.700;23.360;2023-07-02T09:37:30;94677.63;;;27.81;65.04
3096;BME280;1558;42.700;23.360;2023-07-02T09:39:58;94671.75;;;27.18;65.25
3096;BME280;1558;42.700;23.360;2023-07-02T09:42:28;94664.41;;;26.93;66.83
3096;BME280;1558;42.700;23.360;2023-07-02T09:44:58;94675.66;;;26.55;67.06
3096;BME280;1558;42.700;23.360;2023-07-02T09:47:27;94666.00;;;26.81;68.39
3096;BME280;1558;42.700;23.360;2023-07-02T09:50:02;94662.66;;;27.17;67.03
3096;BME280;1558;42.700;23.360;2023-07-02T09:52:33;94648.09;;;26.95;67.71
3096;BME280;1558;42.700;23.360;2023-07-02T09:55:02;94670.03;;;27.11;67.56
3096;BME280;1558;42.700;23.360;2023-07-02T09:57:32;94665.81;;;27.28;65.85
3096;BME280;1558;42.700;23.360;2023-07-02T10:00:03;94652.22;;;27.92;64.99
3096;BME280;1558;42.700;23.360;2023-07-02T10:02:32;94658.44;;;29.05;61.46
3096;BME280;1558;42.700;23.360;2023-07-02T10:05:02;94655.25;;;29.90;59.52
3096;BME280;1558;42.700;23.360;2023-07-02T10:07:32;94656.94;;;29.45;57.73
3096;BME280;1558;42.700;23.360;2023-07-02T10:10:01;94568.72;;;29.55;58.29
3096;BME280;1558;42.700;23.360;2023-07-02T10:12:29;94632.56;;;29.82;56.57
3096;BME280;1558;42.700;23.360;2023-07-02T10:14:59;94651.81;;;29.53;58.68
3096;BME280;1558;42.700;23.360;2023-07-02T10:17:28;94648.06;;;30.22;56.58
3096;BME280;1558;42.700;23.360;2023-07-02T10:19:59;94628.69;;;31.33;54.02
3096;BME280;1558;42.700;23.360;2023-07-02T10:22:41;94634.47;;;32.68;51.11
3096;BME280;1558;42.700;23.360;2023-07-02T10:25:09;94631.00;;;33.56;48.33
3096;BME280;1558;42.700;23.360;2023-07-02T10:27:38;94627.66;;;32.75;48.23
3096;BME280;1558;42.700;23.360;2023-07-02T10:30:08;94625.56;;;32.96;48.30
3096;BME280;1558;42.700;23.360;2023-07-02T10:32:37;94603.09;;;33.36;45.89
3096;BME280;1558;42.700;23.360;2023-07-02T10:35:15;94615.72;;;32.74;47.33
3096;BME280;1558;42.700;23.360;2023-07-02T10:37:45;94614.84;;;33.40;45.44
3096;BME280;1558;42.700;23.360;2023-07-02T10:40:13;94608.06;;;33.89;45.56
3096;BME280;1558;42.700;23.360;2023-07-02T10:42:46;94620.84;;;33.33;45.24
3096;BME280;1558;42.700;23.360;2023-07-02T10:45:15;94622.03;;;34.26;42.20
3096;BME280;1558;42.700;23.360;2023-07-02T10:47:44;94619.31;;;34.37;40.75
3096;BME280;1558;42.700;23.360;2023-07-02T10:50:16;94614.72;;;34.45;40.86
3096;BME280;1558;42.700;23.360;2023-07-02T10:52:46;94617.31;;;34.48;39.56
3096;BME280;1558;42.700;23.360;2023-07-02T10:55:17;94596.56;;;32.88;42.48
3096;BME280;1558;42.700;23.360;2023-07-02T10:57:47;94600.81;;;33.71;43.68
3096;BME280;1558;42.700;23.360;2023-07-02T11:00:15;94605.34;;;33.32;42.44
3096;BME280;1558;42.700;23.360;2023-07-02T11:02:43;94588.41;;;32.44;44.69
3096;BME280;1558;42.700;23.360;2023-07-02T11:05:12;94600.84;;;33.09;45.43
3096;BME280;1558;42.700;23.360;2023-07-02T11:07:42;94577.81;;;33.93;42.19
3096;BME280;1558;42.700;23.360;2023-07-02T11:10:19;94596.28;;;34.75;41.16
3096;BME280;1558;42.700;23.360;2023-07-02T11:12:49;94581.50;;;34.80;39.52
3096;BME280;1558;42.700;23.360;2023-07-02T11:15:19;94592.94;;;33.70;40.48
3096;BME280;1558;42.700;23.360;2023-07-02T11:17:49;94589.47;;;32.46;41.98
3096;BME280;1558;42.700;23.360;2023-07-02T11:20:18;94602.47;;;31.74;43.62
3096;BME280;1558;42.700;23.360;2023-07-02T11:22:48;94594.00;;;32.24;43.39
3096;BME280;1558;42.700;23.360;2023-07-02T11:25:19;94572.44;;;32.24;43.50
3096;BME280;1558;42.700;23.360;2023-07-02T11:27:49;94584.94;;;32.95;43.38
3096;BME280;1558;42.700;23.360;2023-07-02T11:30:18;94605.88;;;33.05;41.21
3096;BME280;1558;42.700;23.360;2023-07-02T11:32:49;94600.00;;;31.96;42.47
3096;BME280;1558;42.700;23.360;2023-07-02T11:35:19;94598.28;;;30.76;44.08
3096;BME280;1558;42.700;23.360;2023-07-02T11:37:48;94578.31;;;29.54;50.65
3096;BME280;1558;42.700;23.360;2023-07-02T11:40:18;94607.56;;;28.90;53.99
3096;BME280;1558;42.700;23.360;2023-07-02T11:42:47;94615.44;;;28.09;57.69
3096;BME280;1558;42.700;23.360;2023-07-02T11:45:18;94608.63;;;27.92;58.91
3096;BME280;1558;42.700;23.360;2023-07-02T11:47:50;94596.72;;;27.74;60.15
3096;BME280;1558;42.700;23.360;2023-07-02T11:50:22;94595.56;;;28.20;59.92
3096;BME280;1558;42.700;23.360;2023-07-02T11:52:54;94605.03;;;29.19;58.90
3096;BME280;1558;42.700;23.360;2023-07-02T11:55:25;94605.69;;;29.79;56.79
3096;BME280;1558;42.700;23.360;2023-07-02T11:57:57;94602.19;;;30.94;55.37
3096;BME280;1558;42.700;23.360;2023-07-02T12:00:28;94602.16;;;31.37;52.47
3096;BME280;1558;42.700;23.360;2023-07-02T12:03:00;94595.31;;;31.38;48.40
3096;BME280;1558;42.700;23.360;2023-07-02T12:05:30;94577.13;;;30.41;49.67
3096;BME280;1558;42.700;23.360;2023-07-02T12:08:02;94603.34;;;30.49;49.18
3096;BME280;1558;42.700;23.360;2023-07-02T12:10:34;94612.31;;;30.67;48.04
3096;BME280;1558;42.700;23.360;2023-07-02T12:13:06;94610.75;;;29.48;48.33
3096;BME280;1558;42.700;23.360;2023-07-02T12:15:38;94620.16;;;29.09;49.54
3096;BME280;1558;42.700;23.360;2023-07-02T12:18:09;94598.03;;;28.45;50.85
3096;BME280;1558;42.700;23.360;2023-07-02T12:20:41;94596.44;;;27.81;52.06
3096;BME280;1558;42.700;23.360;2023-07-02T12:23:13;94592.47;;;27.42;54.02
3096;BME280;1558;42.700;23.360;2023-07-02T12:25:45;94622.50;;;27.43;55.55
3096;BME280;1558;42.700;23.360;2023-07-02T12:28:18;94624.25;;;27.19;56.26
3096;BME280;1558;42.700;23.360;2023-07-02T12:30:51;94604.97;;;26.85;57.99
3096;BME280;1558;42.700;23.360;2023-07-02T12:33:23;94631.34;;;26.99;59.34
3096;BME280;1558;42.700;23.360;2023-07-02T12:35:53;94620.22;;;26.68;61.45
3096;BME280;1558;42.700;23.360;2023-07-02T12:38:21;94636.34;;;27.13;62.95
3096;BME280;1558;42.700;23.360;2023-07-02T12:40:50;94535.06;;;26.72;65.19
3096;BME280;1558;42.700;23.360;2023-07-02T12:43:19;94636.47;;;27.80;65.26
3096;BME280;1558;42.700;23.360;2023-07-02T12:45:47;94628.53;;;28.27;65.15
3096;BME280;1558;42.700;23.360;2023-07-02T12:48:16;94622.38;;;28.41;63.84
3096;BME280;1558;42.700;23.360;2023-07-02T12:50:54;94626.25;;;28.71;63.00
3096;BME280;1558;42.700;23.360;2023-07-02T12:53:22;94621.59;;;28.77;61.51
3096;BME280;1558;42.700;23.360;2023-07-02T12:55:52;94593.88;;;28.13;61.66
3096;BME280;1558;42.700;23.360;2023-07-02T12:58:21;94631.66;;;28.38;61.31
3096;BME280;1558;42.700;23.360;2023-07-02T13:00:50;94619.59;;;28.41;60.79
3096;BME280;1558;42.700;23.360;2023-07-02T13:03:18;94626.06;;;28.02;61.87
3096;BME280;1558;42.700;23.360;2023-07-02T13:05:47;94614.50;;;28.03;62.22
3096;BME280;1558;42.700;23.360;2023-07-02T13:08:16;94615.00;;;29.34;60.74
3096;BME280;1558;42.700;23.360;2023-07-02T13:10:44;94613.31;;;30.17;57.51
3096;BME280;1558;42.700;23.360;2023-07-02T13:13:14;94609.84;;;31.42;52.94
3096;BME280;1558;42.700;23.360;2023-07-02T13:15:51;94510.69;;;31.41;51.77